sensor_id;sensor_type;location;lat;lon;timestamp;P1;durP1;ratioP1;P2;durP2;ratioP2
15476;SDS011;7840;42.702;23.296;2023-03-13T00:55:01;4.37;;;3.97;;
15476;SDS011;7840;42.702;23.296;2023-03-13T00:57:32;5.00;;;4.03;;
15476;SDS011;7840;42.702;23.296;2023-03-13T01:00:02;4.87;;;4.33;;
15476;SDS011;7840;42.702;23.296;2023-03-13T01:02:31;4.47;;;4.00;;
15476;SDS011;7840;42.702;23.296;2023-03-13T01:04:58;5.83;;;4.10;;
15476;SDS011;7840;42.702;23.296;2023-03-13T01:07:25;6.87;;;4.37;;
15476;SDS011;7840;42.702;23.296;2023-03-13T01:09:55;7.00;;;4.60;;
15476;SDS011;7840;42.702;23.296;2023-03-13T01:12:34;5.33;;;4.20;;
15476;SDS011;7840;42.702;23.296;2023-03-13T01:15:02;6.10;;;4.13;;
15476;SDS011;7840;42.702;23.296;2023-03-13T01:17:32;4.20;;;3.83;;
15476;SDS011;7840;42.702;23.296;2023-03-13T01:20:02;4.33;;;3.93;;
15476;SDS011;7840;42.702;23.296;2023-03-13T01:24:55;4.80;;;4.20;;
15476;SDS011;7840;42.702;23.296;2023-03-13T01:27:24;6.53;;;4.13;;
15476;SDS011;7840;42.702;23.296;2023-03-13T01:29:56;5.30;;;4.13;;
15476;SDS011;7840;42.702;23.296;2023-03-13T01:32:24;4.77;;;4.17;;
15476;SDS011;7840;42.702;23.296;2023-03-13T01:34:52;5.00;;;4.50;;
15476;SDS011;7840;42.702;23.296;2023-03-13T01:37:22;4.63;;;4.10;;
15476;SDS011;7840;42.702;23.296;2023-03-13T01:39:50;6.13;;;4.33;;
15476;SDS011;7840;42.702;23.296;2023-03-13T01:42:17;3.77;;;3.47;;
15476;SDS011;7840;42.702;23.296;2023-03-13T01:44:50;5.40;;;4.70;;
15476;SDS011;7840;42.702;23.296;2023-03-13T01:47:17;5.13;;;4.23;;
15476;SDS011;7840;42.702;23.296;2023-03-13T01:49:45;4.87;;;3.53;;
15476;SDS011;7840;42.702;23.296;2023-03-13T01:52:17;6.17;;;4.37;;
15476;SDS011;7840;42.702;23.296;2023-03-13T01:54:49;4.57;;;3.97;;
15476;SDS011;7840;42.702;23.296;2023-03-13T01:57:18;4.30;;;3.90;;
15476;SDS011;7840;42.702;23.296;2023-03-13T01:59:48;5.73;;;4.57;;
15476;SDS011;7840;42.702;23.296;2023-03-13T02:02:19;10.73;;;7.23;;
15476;SDS011;7840;42.702;23.296;2023-03-13T02:04:48;9.63;;;4.77;;
15476;SDS011;7840;42.702;23.296;2023-03-13T02:07:17;4.97;;;4.47;;
15476;SDS011;7840;42.702;23.296;2023-03-13T02:09:46;6.47;;;4.73;;
15476;SDS011;7840;42.702;23.296;2023-03-13T02:12:20;6.37;;;4.97;;
15476;SDS011;7840;42.702;23.296;2023-03-13T02:14:50;5.13;;;4.60;;
15476;SDS011;7840;42.702;23.296;2023-03-13T02:17:19;5.43;;;4.30;;
15476;SDS011;7840;42.702;23.296;2023-03-13T02:19:48;5.73;;;4.50;;
15476;SDS011;7840;42.702;23.296;2023-03-13T02:22:19;4.73;;;4.00;;
15476;SDS011;7840;42.702;23.296;2023-03-13T02:32:29;6.80;;;4.83;;
15476;SDS011;7840;42.702;23.296;2023-03-13T02:35:00;5.67;;;5.07;;
15476;SDS011;7840;42.702;23.296;2023-03-13T02:37:29;6.33;;;4.53;;
15476;SDS011;7840;42.702;23.296;2023-03-13T02:40:00;5.90;;;4.47;;
15476;SDS011;7840;42.702;23.296;2023-03-13T02:42:43;5.70;;;4.40;;
15476;SDS011;7840;42.702;23.296;2023-03-13T02:45:12;4.90;;;4.40;;
15476;SDS011;7840;42.702;23.296;2023-03-13T02:47:46;5.43;;;4.53;;
15476;SDS011;7840;42.702;23.296;2023-03-13T02:50:17;5.60;;;4.93;;
15476;SDS011;7840;42.702;23.296;2023-03-13T02:52:48;7.73;;;5.77;;
15476;SDS011;7840;42.702;23.296;2023-03-13T02:55:18;10.97;;;7.27;;
15476;SDS011;7840;42.702;23.296;2023-03-13T02:57:51;6.93;;;5.90;;
15476;SDS011;7840;42.702;23.296;2023-03-13T03:00:18;9.10;;;6.90;;
15476;SDS011;7840;42.702;23.296;2023-03-13T03:02:52;7.53;;;5.67;;
15476;SDS011;7840;42.702;23.296;2023-03-13T03:05:20;7.77;;;6.03;;
15476;SDS011;7840;42.702;23.296;2023-03-13T03:07:47;7.97;;;6.17;;
15476;SDS011;7840;42.702;23.296;2023-03-13T03:10:15;6.27;;;5.60;;
15476;SDS011;7840;42.702;23.296;2023-03-13T03:12:42;7.30;;;5.90;;
15476;SDS011;7840;42.702;23.296;2023-03-13T03:15:10;7.03;;;5.83;;
15476;SDS011;7840;42.702;23.296;2023-03-13T03:17:37;9.37;;;6.13;;
15476;SDS011;7840;42.702;23.296;2023-03-13T03:20:07;6.50;;;5.87;;
15476;SDS011;7840;42.702;23.296;2023-03-13T03:22:36;8.20;;;6.03;;
15476;SDS011;7840;42.702;23.296;2023-03-13T03:25:21;8.77;;;5.77;;
15476;SDS011;7840;42.702;23.296;2023-03-13T03:28:02;6.83;;;5.97;;
15476;SDS011;7840;42.702;23.296;2023-03-13T03:30:30;8.53;;;6.07;;
15476;SDS011;7840;42.702;23.296;2023-03-13T03:32:57;8.30;;;6.10;;
15476;SDS011;7840;42.702;23.296;2023-03-13T03:35:26;8.00;;;6.20;;
15476;SDS011;7840;42.702;23.296;2023-03-13T03:37:53;7.57;;;6.57;;
15476;SDS011;7840;42.702;23.296;2023-03-13T03:40:20;9.73;;;6.00;;
15476;SDS011;7840;42.702;23.296;2023-03-13T03:42:48;7.67;;;6.47;;
15476;SDS011;7840;42.702;23.296;2023-03-13T03:45:15;7.73;;;6.40;;
15476;SDS011;7840;42.702;23.296;2023-03-13T03:47:43;8.03;;;6.87;;
15476;SDS011;7840;42.702;23.296;2023-03-13T03:50:10;7.90;;;6.63;;
15476;SDS011;7840;42.702;23.296;2023-03-13T03:52:48;8.23;;;6.37;;
15476;SDS011;7840;42.702;23.296;2023-03-13T03:55:22;7.97;;;6.83;;
15476;SDS011;7840;42.702;23.296;2023-03-13T03:57:50;9.43;;;6.53;;
15476;SDS011;7840;42.702;23.296;2023-03-13T04:00:18;10.80;;;7.10;;
15476;SDS011;7840;42.702;23.296;2023-03-13T04:02:46;9.53;;;6.77;;
15476;SDS011;7840;42.702;23.296;2023-03-13T04:05:13;7.40;;;6.63;;
15476;SDS011;7840;42.702;23.296;2023-03-13T04:07:41;10.10;;;7.03;;
15476;SDS011;7840;42.702;23.296;2023-03-13T04:10:13;9.37;;;6.80;;
15476;SDS011;7840;42.702;23.296;2023-03-13T04:12:40;9.17;;;6.93;;
15476;SDS011;7840;42.702;23.296;2023-03-13T04:15:08;8.07;;;7.17;;
15476;SDS011;7840;42.702;23.296;2023-03-13T04:17:36;9.40;;;7.53;;
15476;SDS011;7840;42.702;23.296;2023-03-13T04:20:07;7.93;;;6.97;;
15476;SDS011;7840;42.702;23.296;2023-03-13T04:22:35;8.80;;;7.17;;
15476;SDS011;7840;42.702;23.296;2023-03-13T04:25:06;7.73;;;6.50;;
15476;SDS011;7840;42.702;23.296;2023-03-13T04:27:36;9.60;;;6.93;;
15476;SDS011;7840;42.702;23.296;2023-03-13T04:30:07;10.60;;;7.10;;
15476;SDS011;7840;42.702;23.296;2023-03-13T04:32:44;10.50;;;7.57;;
15476;SDS011;7840;42.702;23.296;2023-03-13T04:35:12;7.60;;;6.80;;
15476;SDS011;7840;42.702;23.296;2023-03-13T04:37:49;14.03;;;9.73;;
15476;SDS011;7840;42.702;23.296;2023-03-13T04:40:17;14.80;;;10.07;;
15476;SDS011;7840;42.702;23.296;2023-03-13T04:42:46;15.63;;;11.53;;
15476;SDS011;7840;42.702;23.296;2023-03-13T04:45:14;14.53;;;10.70;;
15476;SDS011;7840;42.702;23.296;2023-03-13T04:47:41;12.80;;;9.80;;
15476;SDS011;7840;42.702;23.296;2023-03-13T04:50:09;11.17;;;9.87;;
15476;SDS011;7840;42.702;23.296;2023-03-13T04:52:36;13.80;;;9.67;;
15476;SDS011;7840;42.702;23.296;2023-03-13T04:55:07;13.73;;;9.97;;
15476;SDS011;7840;42.702;23.296;2023-03-13T04:57:35;11.33;;;9.87;;
15476;SDS011;7840;42.702;23.296;2023-03-13T05:00:05;11.93;;;9.47;;
15476;SDS011;7840;42.702;23.296;2023-03-13T05:02:35;13.37;;;10.70;;
15476;SDS011;7840;42.702;23.296;2023-03-13T05:05:03;15.20;;;11.03;;
15476;SDS011;7840;42.702;23.296;2023-03-13T05:07:30;11.47;;;10.27;;
15476;SDS011;7840;42.702;23.296;2023-03-13T05:09:59;19.23;;;11.17;;
15476;SDS011;7840;42.702;23.296;2023-03-13T05:12:27;15.37;;;10.30;;
15476;SDS011;7840;42.702;23.296;2023-03-13T05:14:58;15.27;;;11.57;;
15476;SDS011;7840;42.702;23.296;2023-03-13T05:17:32;14.57;;;10.97;;
15476;SDS011;7840;42.702;23.296;2023-03-13T05:20:03;12.30;;;11.00;;
15476;SDS011;7840;42.702;23.296;2023-03-13T05:22:36;14.67;;;10.47;;
15476;SDS011;7840;42.702;23.296;2023-03-13T05:25:18;11.83;;;9.93;;
15476;SDS011;7840;42.702;23.296;2023-03-13T05:27:58;12.30;;;11.00;;
15476;SDS011;7840;42.702;23.296;2023-03-13T05:32:57;11.10;;;9.27;;
15476;SDS011;7840;42.702;23.296;2023-03-13T05:35:24;13.13;;;10.10;;
15476;SDS011;7840;42.702;23.296;2023-03-13T05:37:53;7.43;;;6.60;;
15476;SDS011;7840;42.702;23.296;2023-03-13T05:40:25;10.27;;;8.90;;
15476;SDS011;7840;42.702;23.296;2023-03-13T05:42:52;11.60;;;8.73;;
15476;SDS011;7840;42.702;23.296;2023-03-13T05:45:24;11.23;;;8.07;;
15476;SDS011;7840;42.702;23.296;2023-03-13T05:48:04;6.80;;;6.17;;
15476;SDS011;7840;42.702;23.296;2023-03-13T05:50:43;13.57;;;8.60;;
15476;SDS011;7840;42.702;23.296;2023-03-13T05:53:13;9.27;;;6.83;;
15476;SDS011;7840;42.702;23.296;2023-03-13T05:55:51;12.93;;;8.10;;
15476;SDS011;7840;42.702;23.296;2023-03-13T05:58:30;13.30;;;9.20;;
15476;SDS011;7840;42.702;23.296;2023-03-13T06:01:12;10.70;;;8.90;;
15476;SDS011;7840;42.702;23.296;2023-03-13T06:03:50;10.60;;;8.67;;
15476;SDS011;7840;42.702;23.296;2023-03-13T06:06:19;11.17;;;8.53;;
15476;SDS011;7840;42.702;23.296;2023-03-13T06:08:47;9.00;;;7.50;;
15476;SDS011;7840;42.702;23.296;2023-03-13T06:11:16;9.97;;;7.73;;
15476;SDS011;7840;42.702;23.296;2023-03-13T06:13:43;8.93;;;7.80;;
15476;SDS011;7840;42.702;23.296;2023-03-13T06:16:10;9.63;;;7.73;;
15476;SDS011;7840;42.702;23.296;2023-03-13T06:18:38;9.53;;;7.67;;
15476;SDS011;7840;42.702;23.296;2023-03-13T06:21:09;8.50;;;7.33;;
15476;SDS011;7840;42.702;23.296;2023-03-13T06:23:39;11.27;;;9.03;;
15476;SDS011;7840;42.702;23.296;2023-03-13T06:26:07;8.53;;;7.63;;
15476;SDS011;7840;42.702;23.296;2023-03-13T06:28:36;11.33;;;8.83;;
15476;SDS011;7840;42.702;23.296;2023-03-13T06:36:18;14.37;;;8.47;;
15476;SDS011;7840;42.702;23.296;2023-03-13T06:38:46;16.73;;;10.73;;
15476;SDS011;7840;42.702;23.296;2023-03-13T06:41:15;9.33;;;7.60;;
15476;SDS011;7840;42.702;23.296;2023-03-13T06:43:42;11.23;;;8.03;;
15476;SDS011;7840;42.702;23.296;2023-03-13T06:46:13;12.13;;;7.77;;
15476;SDS011;7840;42.702;23.296;2023-03-13T06:48:42;15.30;;;8.50;;
15476;SDS011;7840;42.702;23.296;2023-03-13T06:51:10;13.90;;;8.70;;
15476;SDS011;7840;42.702;23.296;2023-03-13T06:53:42;8.17;;;7.10;;
15476;SDS011;7840;42.702;23.296;2023-03-13T06:56:10;14.93;;;8.47;;
15476;SDS011;7840;42.702;23.296;2023-03-13T06:58:37;11.73;;;8.73;;
15476;SDS011;7840;42.702;23.296;2023-03-13T07:01:06;14.53;;;9.57;;
15476;SDS011;7840;42.702;23.296;2023-03-13T07:03:41;14.43;;;10.23;;
15476;SDS011;7840;42.702;23.296;2023-03-13T07:06:11;16.67;;;10.30;;
15476;SDS011;7840;42.702;23.296;2023-03-13T07:08:44;16.70;;;10.93;;
15476;SDS011;7840;42.702;23.296;2023-03-13T07:11:14;17.70;;;9.53;;
15476;SDS011;7840;42.702;23.296;2023-03-13T07:13:41;14.23;;;9.83;;
15476;SDS011;7840;42.702;23.296;2023-03-13T07:16:09;12.10;;;10.03;;
15476;SDS011;7840;42.702;23.296;2023-03-13T07:18:37;15.20;;;10.53;;
15476;SDS011;7840;42.702;23.296;2023-03-13T07:21:08;14.77;;;10.63;;
15476;SDS011;7840;42.702;23.296;2023-03-13T07:23:52;14.60;;;10.27;;
15476;SDS011;7840;42.702;23.296;2023-03-13T07:26:24;11.47;;;9.03;;
15476;SDS011;7840;42.702;23.296;2023-03-13T07:28:51;11.13;;;9.57;;
15476;SDS011;7840;42.702;23.296;2023-03-13T07:31:19;13.27;;;10.77;;
15476;SDS011;7840;42.702;23.296;2023-03-13T07:34:03;13.10;;;9.63;;
15476;SDS011;7840;42.702;23.296;2023-03-13T07:36:31;14.93;;;11.17;;
15476;SDS011;7840;42.702;23.296;2023-03-13T07:38:59;11.67;;;9.60;;
15476;SDS011;7840;42.702;23.296;2023-03-13T07:41:27;14.70;;;10.47;;
15476;SDS011;7840;42.702;23.296;2023-03-13T07:43:54;12.30;;;10.43;;
15476;SDS011;7840;42.702;23.296;2023-03-13T07:46:22;13.50;;;10.53;;
15476;SDS011;7840;42.702;23.296;2023-03-13T07:48:50;18.43;;;11.30;;
15476;SDS011;7840;42.702;23.296;2023-03-13T07:51:22;19.07;;;10.57;;
15476;SDS011;7840;42.702;23.296;2023-03-13T07:53:51;14.87;;;10.50;;
15476;SDS011;7840;42.702;23.296;2023-03-13T07:56:20;16.90;;;10.73;;
15476;SDS011;7840;42.702;23.296;2023-03-13T07:58:47;12.93;;;10.90;;
15476;SDS011;7840;42.702;23.296;2023-03-13T08:01:16;13.27;;;10.43;;
15476;SDS011;7840;42.702;23.296;2023-03-13T08:03:44;11.53;;;10.33;;
15476;SDS011;7840;42.702;23.296;2023-03-13T08:06:14;13.03;;;10.27;;
15476;SDS011;7840;42.702;23.296;2023-03-13T08:08:43;12.93;;;10.50;;
15476;SDS011;7840;42.702;23.296;2023-03-13T08:11:11;16.00;;;10.97;;
15476;SDS011;7840;42.702;23.296;2023-03-13T08:13:39;14.33;;;10.23;;
15476;SDS011;7840;42.702;23.296;2023-03-13T08:16:07;13.77;;;10.50;;
15476;SDS011;7840;42.702;23.296;2023-03-13T08:18:35;15.73;;;10.60;;
15476;SDS011;7840;42.702;23.296;2023-03-13T08:21:06;14.23;;;10.83;;
15476;SDS011;7840;42.702;23.296;2023-03-13T08:23:33;12.23;;;9.93;;
15476;SDS011;7840;42.702;23.296;2023-03-13T08:26:03;13.50;;;10.23;;
15476;SDS011;7840;42.702;23.296;2023-03-13T08:28:31;12.30;;;10.53;;
15476;SDS011;7840;42.702;23.296;2023-03-13T08:31:01;10.30;;;9.30;;
15476;SDS011;7840;42.702;23.296;2023-03-13T08:33:42;12.03;;;9.30;;
15476;SDS011;7840;42.702;23.296;2023-03-13T08:36:10;11.90;;;10.07;;
15476;SDS011;7840;42.702;23.296;2023-03-13T08:38:38;12.57;;;8.77;;
15476;SDS011;7840;42.702;23.296;2023-03-13T08:41:07;10.77;;;8.80;;
15476;SDS011;7840;42.702;23.296;2023-03-13T08:43:35;9.73;;;8.53;;
15476;SDS011;7840;42.702;23.296;2023-03-13T08:46:02;10.90;;;9.40;;
15476;SDS011;7840;42.702;23.296;2023-03-13T08:48:30;14.30;;;9.63;;
15476;SDS011;7840;42.702;23.296;2023-03-13T08:51:11;11.43;;;9.30;;
15476;SDS011;7840;42.702;23.296;2023-03-13T08:53:48;12.20;;;8.83;;
15476;SDS011;7840;42.702;23.296;2023-03-13T08:56:17;10.97;;;9.10;;
15476;SDS011;7840;42.702;23.296;2023-03-13T08:58:48;10.67;;;8.57;;
15476;SDS011;7840;42.702;23.296;2023-03-13T09:01:16;11.03;;;9.67;;
15476;SDS011;7840;42.702;23.296;2023-03-13T09:03:43;11.63;;;9.37;;
15476;SDS011;7840;42.702;23.296;2023-03-13T09:06:11;12.07;;;10.20;;
15476;SDS011;7840;42.702;23.296;2023-03-13T09:09:08;14.07;;;9.30;;
15476;SDS011;7840;42.702;23.296;2023-03-13T09:11:37;9.40;;;8.57;;
15476;SDS011;7840;42.702;23.296;2023-03-13T09:14:23;9.73;;;8.70;;
15476;SDS011;7840;42.702;23.296;2023-03-13T09:17:06;9.93;;;8.90;;
15476;SDS011;7840;42.702;23.296;2023-03-13T09:19:34;10.00;;;8.40;;
15476;SDS011;7840;42.702;23.296;2023-03-13T09:24:47;13.00;;;9.70;;
15476;SDS011;7840;42.702;23.296;2023-03-13T09:27:37;15.70;;;10.17;;
15476;SDS011;7840;42.702;23.296;2023-03-13T09:30:04;12.37;;;10.13;;
15476;SDS011;7840;42.702;23.296;2023-03-13T09:32:35;9.80;;;8.80;;
15476;SDS011;7840;42.702;23.296;2023-03-13T09:35:02;14.17;;;9.13;;
15476;SDS011;7840;42.702;23.296;2023-03-13T09:37:30;12.13;;;9.53;;
15476;SDS011;7840;42.702;23.296;2023-03-13T09:39:58;10.77;;;9.20;;
15476;SDS011;7840;42.702;23.296;2023-03-13T09:42:43;14.10;;;9.63;;
15476;SDS011;7840;42.702;23.296;2023-03-13T09:45:17;9.67;;;8.67;;
15476;SDS011;7840;42.702;23.296;2023-03-13T09:47:51;12.93;;;9.10;;
15476;SDS011;7840;42.702;23.296;2023-03-13T09:50:20;10.00;;;8.93;;
15476;SDS011;7840;42.702;23.296;2023-03-13T09:52:53;9.67;;;8.50;;
15476;SDS011;7840;42.702;23.296;2023-03-13T09:55:21;10.17;;;8.30;;
15476;SDS011;7840;42.702;23.296;2023-03-13T09:58:02;9.63;;;8.50;;
15476;SDS011;7840;42.702;23.296;2023-03-13T10:00:33;11.57;;;8.87;;
15476;SDS011;7840;42.702;23.296;2023-03-13T10:03:04;10.63;;;8.90;;
15476;SDS011;7840;42.702;23.296;2023-03-13T10:05:36;9.30;;;8.37;;
15476;SDS011;7840;42.702;23.296;2023-03-13T10:08:11;9.30;;;8.40;;
15476;SDS011;7840;42.702;23.296;2023-03-13T10:10:42;17.10;;;9.20;;
15476;SDS011;7840;42.702;23.296;2023-03-13T10:15:56;12.65;;;9.65;;
15476;SDS011;7840;42.702;23.296;2023-03-13T10:18:25;10.02;;;8.90;;
15476;SDS011;7840;42.702;23.296;2023-03-13T10:20:55;9.52;;;8.52;;
15476;SDS011;7840;42.702;23.296;2023-03-13T10:23:45;10.55;;;9.10;;
15476;SDS011;7840;42.702;23.296;2023-03-13T10:26:14;14.52;;;9.30;;
15476;SDS011;7840;42.702;23.296;2023-03-13T10:28:45;10.02;;;9.02;;
15476;SDS011;7840;42.702;23.296;2023-03-13T10:31:30;10.15;;;9.02;;
15476;SDS011;7840;42.702;23.296;2023-03-13T10:34:04;12.27;;;8.45;;
15476;SDS011;7840;42.702;23.296;2023-03-13T10:36:38;10.10;;;9.10;;
15476;SDS011;7840;42.702;23.296;2023-03-13T10:39:12;9.95;;;8.88;;
15476;SDS011;7840;42.702;23.296;2023-03-13T10:41:44;14.32;;;9.93;;
15476;SDS011;7840;42.702;23.296;2023-03-13T10:44:17;13.00;;;10.07;;
15476;SDS011;7840;42.702;23.296;2023-03-13T10:46:57;12.90;;;9.80;;
15476;SDS011;7840;42.702;23.296;2023-03-13T10:49:46;10.93;;;9.57;;
15476;SDS011;7840;42.702;23.296;2023-03-13T10:52:31;12.95;;;10.32;;
15476;SDS011;7840;42.702;23.296;2023-03-13T10:55:05;10.48;;;9.40;;
15476;SDS011;7840;42.702;23.296;2023-03-13T10:57:34;12.20;;;10.35;;
15476;SDS011;7840;42.702;23.296;2023-03-13T11:00:27;16.90;;;9.27;;
15476;SDS011;7840;42.702;23.296;2023-03-13T11:03:14;12.93;;;9.98;;
15476;SDS011;7840;42.702;23.296;2023-03-13T11:05:43;11.05;;;9.93;;
15476;SDS011;7840;42.702;23.296;2023-03-13T11:08:21;12.30;;;11.02;;
15476;SDS011;7840;42.702;23.296;2023-03-13T11:10:53;12.48;;;11.18;;
15476;SDS011;7840;42.702;23.296;2023-03-13T11:13:33;11.70;;;10.48;;
15476;SDS011;7840;42.702;23.296;2023-03-13T11:21:41;12.50;;;10.45;;
15476;SDS011;7840;42.702;23.296;2023-03-13T11:24:22;12.07;;;10.45;;
15476;SDS011;7840;42.702;23.296;2023-03-13T11:27:11;11.95;;;10.43;;
15476;SDS011;7840;42.702;23.296;2023-03-13T11:29:43;12.52;;;11.25;;
15476;SDS011;7840;42.702;23.296;2023-03-13T11:32:17;12.25;;;11.00;;
15476;SDS011;7840;42.702;23.296;2023-03-13T11:34:46;12.07;;;10.77;;
15476;SDS011;7840;42.702;23.296;2023-03-13T11:37:19;12.73;;;11.00;;
15476;SDS011;7840;42.702;23.296;2023-03-13T11:39:53;12.57;;;11.38;;
15476;SDS011;7840;42.702;23.296;2023-03-13T11:42:47;14.35;;;11.57;;
15476;SDS011;7840;42.702;23.296;2023-03-13T11:45:21;15.43;;;11.20;;
15476;SDS011;7840;42.702;23.296;2023-03-13T11:47:55;14.13;;;11.18;;
15476;SDS011;7840;42.702;23.296;2023-03-13T11:50:31;17.35;;;11.57;;
15476;SDS011;7840;42.702;23.296;2023-03-13T11:55:55;12.20;;;10.70;;
15476;SDS011;7840;42.702;23.296;2023-03-13T11:58:30;13.48;;;12.15;;
15476;SDS011;7840;42.702;23.296;2023-03-13T12:01:04;14.45;;;10.82;;
15476;SDS011;7840;42.702;23.296;2023-03-13T12:03:35;13.38;;;11.00;;
15476;SDS011;7840;42.702;23.296;2023-03-13T12:06:12;11.85;;;10.48;;
15476;SDS011;7840;42.702;23.296;2023-03-13T12:08:43;12.77;;;11.05;;
15476;SDS011;7840;42.702;23.296;2023-03-13T12:11:21;13.48;;;9.98;;
15476;SDS011;7840;42.702;23.296;2023-03-13T12:13:51;11.32;;;10.10;;
15476;SDS011;7840;42.702;23.296;2023-03-13T12:16:25;17.33;;;10.48;;
15476;SDS011;7840;42.702;23.296;2023-03-13T12:18:58;12.00;;;10.05;;
15476;SDS011;7840;42.702;23.296;2023-03-13T12:21:29;11.95;;;10.60;;
15476;SDS011;7840;42.702;23.296;2023-03-13T12:24:01;12.52;;;10.65;;
15476;SDS011;7840;42.702;23.296;2023-03-13T12:29:26;12.38;;;9.95;;
15476;SDS011;7840;42.702;23.296;2023-03-13T12:31:59;11.57;;;10.43;;
15476;SDS011;7840;42.702;23.296;2023-03-13T12:34:29;11.40;;;10.20;;
15476;SDS011;7840;42.702;23.296;2023-03-13T12:37:01;12.90;;;10.90;;
15476;SDS011;7840;42.702;23.296;2023-03-13T12:39:32;13.75;;;10.88;;
15476;SDS011;7840;42.702;23.296;2023-03-13T12:42:08;15.65;;;10.48;;
15476;SDS011;7840;42.702;23.296;2023-03-13T12:44:37;13.43;;;10.63;;
15476;SDS011;7840;42.702;23.296;2023-03-13T12:47:06;14.35;;;10.07;;
15476;SDS011;7840;42.702;23.296;2023-03-13T12:49:44;13.82;;;10.00;;
15476;SDS011;7840;42.702;23.296;2023-03-13T12:52:37;11.68;;;9.90;;
15476;SDS011;7840;42.702;23.296;2023-03-13T12:55:19;12.13;;;10.10;;
15476;SDS011;7840;42.702;23.296;2023-03-13T12:57:57;11.70;;;10.52;;
15476;SDS011;7840;42.702;23.296;2023-03-13T13:00:30;11.32;;;10.10;;
15476;SDS011;7840;42.702;23.296;2023-03-13T13:03:01;11.30;;;10.20;;
15476;SDS011;7840;42.702;23.296;2023-03-13T13:05:32;14.25;;;10.45;;
15476;SDS011;7840;42.702;23.296;2023-03-13T13:08:00;14.10;;;9.95;;
15476;SDS011;7840;42.702;23.296;2023-03-13T13:10:52;12.52;;;9.95;;
15476;SDS011;7840;42.702;23.296;2023-03-13T13:13:42;11.48;;;9.43;;
15476;SDS011;7840;42.702;23.296;2023-03-13T13:16:14;11.43;;;9.98;;
15476;SDS011;7840;42.702;23.296;2023-03-13T13:18:51;12.30;;;9.70;;
15476;SDS011;7840;42.702;23.296;2023-03-13T13:21:24;10.77;;;9.02;;
15476;SDS011;7840;42.702;23.296;2023-03-13T13:27:24;10.60;;;8.85;;
15476;SDS011;7840;42.702;23.296;2023-03-13T13:29:55;9.20;;;8.30;;
15476;SDS011;7840;42.702;23.296;2023-03-13T13:32:34;10.65;;;8.93;;
15476;SDS011;7840;42.702;23.296;2023-03-13T13:35:22;10.15;;;9.15;;
15476;SDS011;7840;42.702;23.296;2023-03-13T13:37:52;11.00;;;8.63;;
15476;SDS011;7840;42.702;23.296;2023-03-13T13:40:41;13.52;;;9.23;;
15476;SDS011;7840;42.702;23.296;2023-03-13T13:43:23;9.00;;;8.10;;
15476;SDS011;7840;42.702;23.296;2023-03-13T13:46:17;14.07;;;8.52;;
15476;SDS011;7840;42.702;23.296;2023-03-13T13:51:32;25.95;;;9.82;;
15476;SDS011;7840;42.702;23.296;2023-03-13T13:54:01;10.63;;;9.48;;
15476;SDS011;7840;42.702;23.296;2023-03-13T13:56:41;10.82;;;9.15;;
15476;SDS011;7840;42.702;23.296;2023-03-13T14:04:41;9.82;;;8.93;;
15476;SDS011;7840;42.702;23.296;2023-03-13T14:07:14;12.35;;;9.27;;
15476;SDS011;7840;42.702;23.296;2023-03-13T14:09:46;9.20;;;8.40;;
15476;SDS011;7840;42.702;23.296;2023-03-13T14:12:26;10.00;;;8.85;;
15476;SDS011;7840;42.702;23.296;2023-03-13T14:15:08;9.68;;;8.70;;
15476;SDS011;7840;42.702;23.296;2023-03-13T14:17:40;10.82;;;8.73;;
15476;SDS011;7840;42.702;23.296;2023-03-13T14:20:30;9.70;;;8.70;;
15476;SDS011;7840;42.702;23.296;2023-03-13T14:23:00;12.65;;;8.25;;
15476;SDS011;7840;42.702;23.296;2023-03-13T14:25:49;9.70;;;8.45;;
15476;SDS011;7840;42.702;23.296;2023-03-13T14:28:18;10.05;;;8.38;;
15476;SDS011;7840;42.702;23.296;2023-03-13T14:30:46;9.63;;;8.55;;
15476;SDS011;7840;42.702;23.296;2023-03-13T14:33:14;8.93;;;7.10;;
15476;SDS011;7840;42.702;23.296;2023-03-13T14:35:42;10.23;;;7.95;;
15476;SDS011;7840;42.702;23.296;2023-03-13T14:38:20;9.75;;;7.57;;
15476;SDS011;7840;42.702;23.296;2023-03-13T14:40:50;12.48;;;8.43;;
15476;SDS011;7840;42.702;23.296;2023-03-13T14:43:22;10.82;;;8.15;;
15476;SDS011;7840;42.702;23.296;2023-03-13T14:45:51;12.45;;;8.30;;
15476;SDS011;7840;42.702;23.296;2023-03-13T14:48:20;11.57;;;7.63;;
15476;SDS011;7840;42.702;23.296;2023-03-13T14:50:50;9.05;;;7.43;;
15476;SDS011;7840;42.702;23.296;2023-03-13T14:53:25;10.68;;;8.00;;
15476;SDS011;7840;42.702;23.296;2023-03-13T14:56:08;8.77;;;7.65;;
15476;SDS011;7840;42.702;23.296;2023-03-13T14:58:48;8.95;;;8.07;;
15476;SDS011;7840;42.702;23.296;2023-03-13T15:01:23;9.18;;;8.25;;
15476;SDS011;7840;42.702;23.296;2023-03-13T15:03:50;8.93;;;8.07;;
15476;SDS011;7840;42.702;23.296;2023-03-13T15:06:18;8.75;;;7.95;;
15476;SDS011;7840;42.702;23.296;2023-03-13T15:08:49;12.57;;;9.20;;
15476;SDS011;7840;42.702;23.296;2023-03-13T15:11:34;12.93;;;8.50;;
15476;SDS011;7840;42.702;23.296;2023-03-13T15:17:05;11.63;;;7.97;;
15476;SDS011;7840;42.702;23.296;2023-03-13T15:19:40;9.10;;;8.18;;
15476;SDS011;7840;42.702;23.296;2023-03-13T15:22:13;8.02;;;7.32;;
15476;SDS011;7840;42.702;23.296;2023-03-13T15:24:47;8.23;;;7.32;;
15476;SDS011;7840;42.702;23.296;2023-03-13T15:27:15;8.38;;;7.28;;
15476;SDS011;7840;42.702;23.296;2023-03-13T15:29:45;9.05;;;7.97;;
15476;SDS011;7840;42.702;23.296;2023-03-13T15:32:16;9.98;;;8.07;;
15476;SDS011;7840;42.702;23.296;2023-03-13T15:35:01;12.45;;;7.90;;
15476;SDS011;7840;42.702;23.296;2023-03-13T15:37:32;14.40;;;8.23;;
15476;SDS011;7840;42.702;23.296;2023-03-13T15:40:12;10.05;;;7.60;;
15476;SDS011;7840;42.702;23.296;2023-03-13T15:42:39;17.90;;;7.65;;
15476;SDS011;7840;42.702;23.296;2023-03-13T15:45:13;9.07;;;7.18;;
15476;SDS011;7840;42.702;23.296;2023-03-13T15:47:40;9.82;;;7.60;;
15476;SDS011;7840;42.702;23.296;2023-03-13T15:50:19;10.38;;;8.27;;
15476;SDS011;7840;42.702;23.296;2023-03-13T15:52:53;9.77;;;8.85;;
15476;SDS011;7840;42.702;23.296;2023-03-13T15:55:24;10.98;;;8.52;;
15476;SDS011;7840;42.702;23.296;2023-03-13T15:58:03;29.13;;;22.45;;
15476;SDS011;7840;42.702;23.296;2023-03-13T16:00:34;10.52;;;7.70;;
15476;SDS011;7840;42.702;23.296;2023-03-13T16:03:01;10.95;;;8.30;;
15476;SDS011;7840;42.702;23.296;2023-03-13T16:05:29;12.88;;;8.40;;
15476;SDS011;7840;42.702;23.296;2023-03-13T16:07:56;10.00;;;8.93;;
15476;SDS011;7840;42.702;23.296;2023-03-13T16:10:26;14.07;;;8.30;;
15476;SDS011;7840;42.702;23.296;2023-03-13T16:12:54;12.55;;;9.13;;
15476;SDS011;7840;42.702;23.296;2023-03-13T16:15:21;11.93;;;8.82;;
15476;SDS011;7840;42.702;23.296;2023-03-13T16:18:03;13.55;;;9.32;;
15476;SDS011;7840;42.702;23.296;2023-03-13T16:20:34;11.27;;;9.35;;
15476;SDS011;7840;42.702;23.296;2023-03-13T16:23:16;17.67;;;10.55;;
15476;SDS011;7840;42.702;23.296;2023-03-13T16:25:47;18.85;;;10.65;;
15476;SDS011;7840;42.702;23.296;2023-03-13T16:28:19;12.15;;;10.18;;
15476;SDS011;7840;42.702;23.296;2023-03-13T16:30:50;13.18;;;8.57;;
15476;SDS011;7840;42.702;23.296;2023-03-13T16:33:36;12.27;;;9.63;;
15476;SDS011;7840;42.702;23.296;2023-03-13T16:36:18;11.10;;;9.60;;
15476;SDS011;7840;42.702;23.296;2023-03-13T16:38:46;14.95;;;10.02;;
15476;SDS011;7840;42.702;23.296;2023-03-13T16:41:19;13.18;;;9.40;;
15476;SDS011;7840;42.702;23.296;2023-03-13T16:43:47;14.50;;;10.20;;
15476;SDS011;7840;42.702;23.296;2023-03-13T16:46:20;22.02;;;11.45;;
15476;SDS011;7840;42.702;23.296;2023-03-13T16:49:13;17.10;;;10.98;;